Time;durP1;ratioP1;P1;durP2;ratioP2;P2;SDS_P1;SDS_P2;PMS_P1;PMS_P2;Temp;Humidity;BMP_temperature;BMP_pressure;BME280_temperature;BME280_humidity;BME280_pressure;Samples;Min_cycle;Max_cycle;Signal;HPM_P1;HPM_P2
2022/01/19 00:00:16;;;;;;;56.77;6.27;;;;;;;5.31;100.00;99577.00;5118675;28;20607;-75
2022/01/19 00:02:42;;;;;;;35.40;5.07;;;;;;;5.17;100.00;99568.06;5117289;28;20604;-74
2022/01/19 00:05:11;;;;;;;74.93;7.70;;;;;;;5.27;100.00;99570.41;5118147;28;20680;-74
2022/01/19 00:07:38;;;;;;;37.00;5.00;;;;;;;5.42;100.00;99550.81;5120937;28;20604;-74
2022/01/19 00:10:11;;;;;;;60.83;7.17;;;;;;;5.48;100.00;99543.91;5120923;28;20596;-75
2022/01/19 00:12:38;;;;;;;85.43;8.40;;;;;;;5.56;100.00;99535.84;5117400;28;20609;-74
2022/01/19 00:15:07;;;;;;;48.70;6.03;;;;;;;5.50;100.00;99522.53;5117534;28;20605;-75
2022/01/19 00:17:33;;;;;;;29.10;4.50;;;;;;;5.56;100.00;99537.69;5120468;28;20608;-75
2022/01/19 00:20:00;;;;;;;43.50;5.57;;;;;;;5.36;100.00;99540.13;5120777;28;20618;-74
2022/01/19 00:22:27;;;;;;;51.43;6.13;;;;;;;5.36;100.00;99537.50;5117681;28;20596;-74
2022/01/19 00:24:54;;;;;;;49.70;5.47;;;;;;;5.13;100.00;99537.69;5112127;28;20601;-75
2022/01/19 00:27:22;;;;;;;38.37;5.40;;;;;;;4.97;100.00;99537.94;5120350;28;20592;-75
2022/01/19 00:29:48;;;;;;;58.40;5.93;;;;;;;5.12;100.00;99537.88;5120864;28;20599;-75
2022/01/19 00:32:15;;;;;;;55.30;5.57;;;;;;;5.31;100.00;99539.91;5119646;28;20600;-74
2022/01/19 00:34:41;;;;;;;61.83;5.13;;;;;;;5.55;100.00;99533.38;5120793;28;20596;-74
2022/01/19 00:37:08;;;;;;;59.53;5.37;;;;;;;5.58;100.00;99543.59;5121660;28;20600;-74
2022/01/19 00:39:35;;;;;;;43.80;4.10;;;;;;;5.52;100.00;99533.75;5123483;28;21193;-74
2022/01/19 00:42:01;;;;;;;42.80;4.97;;;;;;;5.33;100.00;99521.97;5124378;28;20596;-75
2022/01/19 00:44:29;;;;;;;79.30;7.47;;;;;;;5.17;100.00;99524.91;5120864;28;20600;-74
2022/01/19 00:46:56;;;;;;;43.47;4.80;;;;;;;5.13;100.00;99524.44;5120824;28;20592;-74
2022/01/19 00:49:22;;;;;;;43.40;5.33;;;;;;;5.11;100.00;99517.69;5123232;28;20637;-74
2022/01/19 00:51:49;;;;;;;135.60;8.60;;;;;;;4.85;100.00;99502.38;5123976;28;20595;-74
2022/01/19 00:54:16;;;;;;;58.30;5.30;;;;;;;5.19;100.00;99506.97;5116351;28;20654;-74
2022/01/19 00:56:42;;;;;;;57.67;5.53;;;;;;;5.01;100.00;99507.44;5120267;28;20601;-74
2022/01/19 00:59:09;;;;;;;30.63;4.30;;;;;;;4.79;100.00;99503.13;5122029;28;20601;-74
2022/01/19 01:01:37;;;;;;;67.93;7.00;;;;;;;4.62;100.00;99504.31;5124542;28;20604;-74
2022/01/19 01:04:04;;;;;;;69.77;6.87;;;;;;;4.49;100.00;99499.69;5122583;28;21285;-75
2022/01/19 01:06:31;;;;;;;85.07;8.23;;;;;;;4.50;100.00;99487.28;5120761;28;20604;-74
2022/01/19 01:08:58;;;;;;;89.90;7.57;;;;;;;4.53;100.00;99482.44;5120341;28;20619;-74
2022/01/19 01:11:29;;;;;;;59.10;5.90;;;;;;;4.36;100.00;99473.09;5123008;28;20621;-74
2022/01/19 01:17:10;;;;;;;67.23;6.30;;;;;;;4.20;100.00;99474.13;5120296;28;20608;-74
2022/01/19 01:19:37;;;;;;;67.83;6.43;;;;;;;4.19;100.00;99469.84;5153152;27;20601;-74
2022/01/19 01:22:04;;;;;;;72.17;6.63;;;;;;;3.95;100.00;99464.00;5118498;28;20620;-74
2022/01/19 01:24:31;;;;;;;108.30;8.23;;;;;;;3.98;100.00;99461.00;5119133;28;20609;-74
2022/01/19 01:26:57;;;;;;;48.27;5.57;;;;;;;3.74;100.00;99444.41;5119718;28;20600;-74
2022/01/19 01:29:24;;;;;;;77.07;7.90;;;;;;;3.78;100.00;99435.13;5121304;28;21009;-74
2022/01/19 01:31:52;;;;;;;72.03;6.50;;;;;;;3.74;100.00;99433.84;5123263;28;20609;-74
2022/01/19 01:34:18;;;;;;;74.40;6.80;;;;;;;3.73;100.00;99431.38;5121038;28;20599;-74
2022/01/19 01:36:45;;;;;;;47.40;5.13;;;;;;;3.53;100.00;99427.66;5119545;28;20601;-74
2022/01/19 01:39:11;;;;;;;48.50;5.60;;;;;;;3.51;100.00;99419.91;5120703;28;20605;-74
2022/01/19 01:41:38;;;;;;;80.63;7.50;;;;;;;3.74;100.00;99435.69;5121478;28;20612;-74
2022/01/19 01:44:05;;;;;;;51.50;5.73;;;;;;;3.74;100.00;99423.25;5121100;28;21069;-74
2022/01/19 01:46:41;;;;;;;68.93;6.90;;;;;;;3.70;100.00;99421.19;5117977;28;20612;-74
2022/01/19 01:49:16;;;;;;;43.20;5.50;;;;;;;3.74;100.00;99425.91;5119902;28;20615;-74
2022/01/19 01:54:26;;;;;;;42.53;4.70;;;;;;;3.65;100.00;99421.72;5112147;28;20730;-74
2022/01/19 01:56:54;;;;;;;55.53;4.90;;;;;;;3.66;100.00;99418.09;5117730;28;20605;-74
2022/01/19 01:59:21;;;;;;;53.80;5.73;;;;;;;3.83;100.00;99407.34;5120097;28;20600;-74
2022/01/19 02:01:48;;;;;;;70.37;6.70;;;;;;;4.10;100.00;99390.81;5122158;28;20615;-75
2022/01/19 02:04:16;;;;;;;35.60;3.70;;;;;;;4.31;100.00;99382.91;5120066;28;20608;-75
2022/01/19 02:07:00;;;;;;;56.87;6.53;;;;;;;4.54;100.00;99382.75;5117904;28;20597;-74
2022/01/19 02:09:31;;;;;;;54.47;5.63;;;;;;;4.56;100.00;99370.97;5121071;28;21026;-74
2022/01/19 02:23:00;;;;;;;32.90;4.80;;;;;;;4.83;100.00;99335.78;5112127;28;20612;-74
2022/01/19 02:25:30;;;;;;;62.63;6.80;;;;;;;4.90;100.00;99334.00;5113637;28;20608;-74
2022/01/19 02:36:50;;;;;;;42.17;5.93;;;;;;;5.09;100.00;99321.09;5113638;28;20628;-75
2022/01/19 02:42:05;;;;;;;85.57;7.83;;;;;;;5.14;100.00;99314.22;5121562;28;20657;-74
2022/01/19 02:46:32;;;;;;;64.37;7.20;;;;;;;5.11;100.00;99314.59;5108328;28;20609;-74
2022/01/19 02:50:07;;;;;;;71.00;7.03;;;;;;;5.16;100.00;99312.22;5109968;28;20626;-75
2022/01/19 02:52:35;;;;;;;64.53;8.17;;;;;;;5.01;100.00;99313.31;5117108;28;20608;-75
2022/01/19 02:55:02;;;;;;;52.37;6.87;;;;;;;4.35;100.00;99310.94;5119392;28;20597;-74
2022/01/19 02:57:28;;;;;;;58.53;7.13;;;;;;;4.34;100.00;99296.06;5121955;28;20819;-74
2022/01/19 03:10:50;;;;;;;100.17;8.10;;;;;;;3.22;100.00;99290.47;5109258;28;20609;-74
2022/01/19 03:13:16;;;;;;;68.33;7.37;;;;;;;3.28;100.00;99275.75;5109347;28;20592;-74
2022/01/19 03:15:43;;;;;;;44.97;6.13;;;;;;;3.34;100.00;99270.56;5109595;28;20895;-74
2022/01/19 03:18:09;;;;;;;73.20;7.43;;;;;;;3.15;100.00;99271.94;5109464;28;20600;-74
2022/01/19 03:20:38;;;;;;;48.90;5.07;;;;;;;3.01;100.00;99272.75;5109267;28;21109;-74
2022/01/19 03:23:15;;;;;;;51.40;7.17;;;;;;;3.06;100.00;99264.28;5119126;28;20626;-74
2022/01/19 03:25:42;;;;;;;55.33;6.80;;;;;;;2.88;100.00;99275.19;5114529;28;20610;-74
2022/01/19 03:28:08;;;;;;;65.90;8.17;;;;;;;2.86;100.00;99282.47;5120724;28;20611;-74
2022/01/19 03:30:35;;;;;;;53.47;6.87;;;;;;;3.31;100.00;99278.03;5117686;28;20611;-74
2022/01/19 03:33:02;;;;;;;58.10;6.80;;;;;;;3.48;100.00;99288.22;5117751;28;20613;-74
2022/01/19 03:35:29;;;;;;;34.13;5.90;;;;;;;3.85;100.00;99270.53;5121383;28;20633;-75
2022/01/19 03:37:56;;;;;;;42.17;5.60;;;;;;;3.97;100.00;99276.97;5121361;28;20600;-74
2022/01/19 03:40:24;;;;;;;32.10;4.53;;;;;;;4.13;100.00;99266.16;5117435;28;20616;-74
2022/01/19 03:42:51;;;;;;;61.97;7.97;;;;;;;4.24;100.00;99266.47;5117993;28;20600;-74
2022/01/19 03:45:19;;;;;;;48.30;5.40;;;;;;;4.03;100.00;99261.19;5118392;28;20604;-74
2022/01/19 03:47:51;;;;;;;51.37;7.00;;;;;;;3.80;100.00;99261.38;5121403;28;20644;-74
2022/01/19 03:50:18;;;;;;;55.93;6.80;;;;;;;3.77;100.00;99253.00;5118037;28;21432;-74
2022/01/19 03:52:45;;;;;;;54.40;7.07;;;;;;;3.83;100.00;99249.59;5117712;28;20623;-74
2022/01/19 03:55:11;;;;;;;57.10;6.93;;;;;;;3.71;100.00;99248.47;5112637;28;20597;-74
2022/01/19 03:57:39;;;;;;;31.23;5.07;;;;;;;3.82;100.00;99242.66;5121334;28;20611;-75
2022/01/19 04:00:09;;;;;;;54.40;6.77;;;;;;;3.97;100.00;99238.16;5121050;28;20630;-74
2022/01/19 04:02:36;;;;;;;66.73;7.17;;;;;;;3.96;100.00;99244.44;5116528;28;20608;-74
2022/01/19 04:05:07;;;;;;;41.23;6.80;;;;;;;4.25;100.00;99236.38;5117985;28;20628;-74
2022/01/19 04:07:33;;;;;;;43.20;5.30;;;;;;;4.24;100.00;99232.09;5117716;28;20612;-75
2022/01/19 04:10:00;;;;;;;54.57;7.47;;;;;;;4.35;100.00;99239.53;5119944;28;20600;-74
2022/01/19 04:12:42;;;;;;;30.57;4.37;;;;;;;4.47;100.00;99236.34;5124928;28;20625;-74
2022/01/19 04:15:11;;;;;;;35.93;5.20;;;;;;;4.50;100.00;99239.44;5124448;28;20619;-75
2022/01/19 04:17:42;;;;;;;56.57;6.50;;;;;;;4.50;100.00;99247.38;5120314;28;20603;-74
2022/01/19 04:20:10;;;;;;;34.80;5.77;;;;;;;4.55;100.00;99226.44;5121777;28;20600;-74
2022/01/19 04:22:37;;;;;;;49.10;6.13;;;;;;;4.57;100.00;99220.97;5124782;28;20633;-75
2022/01/19 04:25:04;;;;;;;57.00;6.67;;;;;;;4.56;100.00;99221.97;5116737;28;20585;-74
2022/01/19 04:27:34;;;;;;;74.27;6.87;;;;;;;4.57;100.00;99220.97;5121162;28;20613;-75
2022/01/19 04:30:07;;;;;;;60.63;7.97;;;;;;;4.33;100.00;99217.72;5120794;28;21081;-75
2022/01/19 04:32:42;;;;;;;65.30;6.80;;;;;;;4.40;100.00;99230.19;5121124;28;21192;-75
2022/01/19 04:35:12;;;;;;;51.27;7.13;;;;;;;4.43;100.00;99221.88;5120858;28;20619;-74
2022/01/19 04:46:46;;;;;;;33.43;5.90;;;;;;;4.27;100.00;99223.78;5125241;28;20708;-74
2022/01/19 04:54:10;;;;;;;39.67;5.47;;;;;;;4.36;100.00;99224.50;5122231;28;20608;-74
2022/01/19 05:01:34;;;;;;;101.53;8.33;;;;;;;4.27;100.00;99226.41;5114104;28;20634;-74
2022/01/19 05:03:18;;;;;;;25.27;4.60;;;;;;;4.39;100.00;99224.09;5124252;28;20615;-74
2022/01/19 05:05:53;;;;;;;30.77;4.80;;;;;;;4.46;100.00;99214.38;5120036;28;20608;-74
2022/01/19 05:08:37;;;;;;;29.23;4.80;;;;;;;4.47;100.00;99221.31;5121613;28;20623;-74
2022/01/19 05:13:51;;;;;;;61.73;6.70;;;;;;;4.47;100.00;99212.53;5119351;28;20619;-74
2022/01/19 05:16:19;;;;;;;40.63;6.17;;;;;;;4.47;100.00;99216.00;5122329;28;20608;-74
2022/01/19 05:18:46;;;;;;;40.47;6.10;;;;;;;4.46;100.00;99208.25;5123954;28;20624;-74
2022/01/19 05:21:14;;;;;;;41.33;5.37;;;;;;;4.43;100.00;99209.47;5121887;28;20645;-74
2022/01/19 05:23:40;;;;;;;33.70;5.63;;;;;;;4.38;100.00;99206.59;5119172;28;20642;-74
2022/01/19 05:26:07;;;;;;;54.73;6.40;;;;;;;4.40;100.00;99217.78;5120788;28;20904;-74
2022/01/19 05:28:34;;;;;;;41.60;5.47;;;;;;;4.38;100.00;99213.69;5121094;28;20604;-75
2022/01/19 05:31:01;;;;;;;41.70;5.70;;;;;;;4.38;100.00;99203.94;5122309;28;20604;-74
2022/01/19 05:33:28;;;;;;;37.50;5.90;;;;;;;4.36;100.00;99208.63;5126281;28;20599;-74
2022/01/19 05:35:54;;;;;;;47.60;6.27;;;;;;;4.34;100.00;99206.16;5124977;28;20596;-74
2022/01/19 05:38:22;;;;;;;36.80;5.60;;;;;;;4.38;100.00;99205.75;5121324;27;21183;-74
2022/01/19 05:40:49;;;;;;;38.13;6.70;;;;;;;4.35;100.00;99207.78;5120149;28;20646;-74
2022/01/19 05:43:16;;;;;;;40.33;5.83;;;;;;;4.33;100.00;99204.50;5121636;28;20619;-74
2022/01/19 05:45:42;;;;;;;31.37;4.97;;;;;;;4.30;100.00;99199.59;5123619;28;20598;-74
2022/01/19 05:48:09;;;;;;;59.60;6.50;;;;;;;4.27;100.00;99199.97;5122582;28;20613;-74
2022/01/19 05:50:36;;;;;;;56.73;7.20;;;;;;;4.28;100.00;99192.88;5119527;28;20592;-74
2022/01/19 05:53:03;;;;;;;39.77;6.80;;;;;;;4.27;100.00;99194.69;5122342;28;20597;-74
2022/01/19 05:55:31;;;;;;;38.27;5.93;;;;;;;4.26;100.00;99192.25;5118451;28;20616;-75
2022/01/19 05:57:57;;;;;;;46.63;7.17;;;;;;;4.24;100.00;99197.72;5119968;28;20608;-74
2022/01/19 06:00:24;;;;;;;53.90;6.13;;;;;;;4.24;100.00;99191.63;5121435;28;20659;-74
2022/01/19 06:02:52;;;;;;;45.43;6.00;;;;;;;4.20;100.00;99193.84;5123146;28;20607;-74
2022/01/19 06:05:19;;;;;;;41.60;6.10;;;;;;;4.23;100.00;99206.69;5120841;28;21166;-74
2022/01/19 06:07:48;;;;;;;45.77;6.63;;;;;;;4.20;100.00;99200.94;5118310;28;20629;-74
2022/01/19 06:12:57;;;;;;;40.00;5.37;;;;;;;4.21;100.00;99200.75;5123107;28;20970;-74
2022/01/19 06:15:24;;;;;;;53.77;7.33;;;;;;;4.19;100.00;99192.19;5119276;28;21213;-74
2022/01/19 06:17:52;;;;;;;37.73;7.00;;;;;;;4.16;100.00;99181.19;5118439;28;21006;-75
2022/01/19 06:20:19;;;;;;;40.83;6.33;;;;;;;4.20;100.00;99183.25;5121563;28;20608;-74
2022/01/19 06:22:45;;;;;;;48.00;6.50;;;;;;;4.10;100.00;99177.47;5122670;28;20599;-74
2022/01/19 06:25:12;;;;;;;54.10;6.47;;;;;;;4.08;100.00;99173.41;5120217;28;20600;-74
2022/01/19 06:27:39;;;;;;;89.77;8.07;;;;;;;4.10;100.00;99166.91;5119041;28;20592;-74
2022/01/19 06:30:08;;;;;;;41.00;5.60;;;;;;;4.08;100.00;99162.81;5119132;28;20609;-75
2022/01/19 06:32:35;;;;;;;40.90;6.03;;;;;;;4.10;100.00;99166.09;5121320;28;20625;-74
2022/01/19 06:35:02;;;;;;;67.13;8.30;;;;;;;4.29;100.00;99160.97;5122295;28;20604;-74
2022/01/19 06:37:28;;;;;;;55.67;7.30;;;;;;;4.26;100.00;99153.41;5118952;28;20596;-74
2022/01/19 06:39:55;;;;;;;61.53;8.27;;;;;;;4.15;100.00;99153.09;5118885;28;20605;-74
2022/01/19 06:42:21;;;;;;;56.43;7.83;;;;;;;4.17;100.00;99146.63;5121031;28;20604;-74
2022/01/19 06:44:48;;;;;;;75.77;8.00;;;;;;;4.20;100.00;99140.97;5120663;28;20591;-77
2022/01/19 06:47:16;;;;;;;55.80;7.30;;;;;;;4.09;100.00;99138.81;5119716;28;20626;-76
2022/01/19 06:49:43;;;;;;;75.40;7.73;;;;;;;4.19;100.00;99134.03;5118884;28;20600;-76
2022/01/19 06:52:10;;;;;;;33.80;7.07;;;;;;;4.22;100.00;99132.81;5120268;28;20596;-76
2022/01/19 06:54:36;;;;;;;105.50;10.40;;;;;;;4.09;100.00;99122.97;5116857;28;20604;-76
2022/01/19 06:57:04;;;;;;;73.87;10.90;;;;;;;4.08;100.00;99126.63;5119121;28;20608;-76
2022/01/19 06:59:31;;;;;;;53.90;7.10;;;;;;;4.03;100.00;99134.31;5118642;28;20759;-76
2022/01/19 07:01:57;;;;;;;47.07;6.80;;;;;;;3.96;100.00;99122.84;5119068;28;20608;-76
2022/01/19 07:04:26;;;;;;;31.07;7.17;;;;;;;4.04;100.00;99119.25;5122711;28;21426;-76
2022/01/19 07:06:52;;;;;;;59.20;9.23;;;;;;;3.96;100.00;99114.13;5121915;28;20601;-76
2022/01/19 07:09:19;;;;;;;70.73;8.80;;;;;;;4.03;100.00;99115.81;5120572;28;20616;-77
2022/01/19 07:11:45;;;;;;;54.43;7.83;;;;;;;4.12;100.00;99100.59;5120009;28;20634;-76
2022/01/19 07:14:13;;;;;;;86.33;9.70;;;;;;;4.08;100.00;99096.72;5124580;28;20612;-76
2022/01/19 07:16:40;;;;;;;62.63;7.53;;;;;;;3.85;100.00;99104.88;5129028;28;20615;-76
2022/01/19 07:19:07;;;;;;;47.40;8.10;;;;;;;3.78;100.00;99098.72;5125070;28;20700;-76
2022/01/19 07:21:35;;;;;;;34.23;6.37;;;;;;;3.85;100.00;99099.59;5120177;28;20604;-76
2022/01/19 07:24:02;;;;;;;93.80;9.30;;;;;;;3.89;100.00;99100.84;5117741;28;20615;-76
2022/01/19 07:26:28;;;;;;;65.57;8.73;;;;;;;3.91;100.00;99084.78;5118862;28;20604;-76
2022/01/19 07:28:55;;;;;;;52.87;7.67;;;;;;;3.75;100.00;99088.53;5118893;28;21310;-76
2022/01/19 07:31:22;;;;;;;87.83;9.10;;;;;;;3.51;100.00;99091.56;5121426;28;20620;-76
2022/01/19 07:33:48;;;;;;;51.83;7.73;;;;;;;3.49;100.00;99083.03;5122537;28;20608;-76
2022/01/19 07:36:16;;;;;;;84.70;9.57;;;;;;;3.59;100.00;99094.09;5120997;28;20608;-76
2022/01/19 07:38:47;;;;;;;107.23;10.07;;;;;;;3.73;100.00;99088.75;5118746;28;20657;-76
2022/01/19 07:41:13;;;;;;;31.77;7.07;;;;;;;3.83;100.00;99088.41;5120625;28;20666;-76
2022/01/19 07:43:40;;;;;;;43.63;7.33;;;;;;;3.50;100.00;99080.19;5125347;28;20595;-76
2022/01/19 07:46:07;;;;;;;64.57;9.50;;;;;;;3.32;100.00;99071.06;5124781;28;20599;-76
2022/01/19 07:48:33;;;;;;;40.13;7.70;;;;;;;2.94;100.00;99071.28;5122768;28;20697;-76
2022/01/19 07:51:00;;;;;;;75.73;9.23;;;;;;;2.78;100.00;99062.78;5122863;28;20635;-76
2022/01/19 07:53:27;;;;;;;53.73;8.20;;;;;;;2.62;100.00;99069.06;5124306;28;20593;-77
2022/01/19 07:55:55;;;;;;;106.63;10.50;;;;;;;2.58;100.00;99055.44;5120446;28;20621;-76
2022/01/19 07:58:22;;;;;;;47.80;8.00;;;;;;;2.68;100.00;99031.41;5122815;28;20772;-76
2022/01/19 08:00:48;;;;;;;55.47;7.30;;;;;;;2.38;100.00;99027.19;5122027;28;20585;-76
2022/01/19 08:03:15;;;;;;;51.17;8.67;;;;;;;2.58;100.00;99034.34;5123607;28;20729;-76
2022/01/19 08:05:44;;;;;;;26.40;7.73;;;;;;;2.74;100.00;99041.22;5126207;28;20591;-76
2022/01/19 08:08:11;;;;;;;56.60;9.13;;;;;;;2.90;100.00;99033.09;5125687;27;20615;-76
2022/01/19 08:10:40;;;;;;;72.97;8.63;;;;;;;2.61;100.00;99023.41;5122783;28;20601;-76
2022/01/19 08:13:08;;;;;;;71.13;9.80;;;;;;;2.21;100.00;99013.38;5122348;28;20611;-76
2022/01/19 08:15:35;;;;;;;50.50;9.90;;;;;;;1.99;100.00;99009.03;5126293;28;20708;-76
2022/01/19 08:18:03;;;;;;;94.67;10.13;;;;;;;1.89;100.00;99001.38;5125460;28;20600;-76
2022/01/19 08:20:30;;;;;;;61.17;9.87;;;;;;;1.79;100.00;99003.50;5122481;28;20602;-76
2022/01/19 08:22:56;;;;;;;56.23;8.63;;;;;;;1.83;100.00;99006.56;5124261;28;20592;-77
2022/01/19 08:25:23;;;;;;;48.57;7.77;;;;;;;1.55;100.00;99003.69;5117693;28;20608;-76
2022/01/19 08:27:50;;;;;;;75.80;9.50;;;;;;;1.55;100.00;99001.06;5125822;28;20909;-76
2022/01/19 08:30:18;;;;;;;71.97;9.83;;;;;;;1.60;100.00;99001.38;5122906;28;20588;-76
2022/01/19 08:32:45;;;;;;;54.60;8.33;;;;;;;1.66;100.00;99010.34;5120274;28;20616;-76
2022/01/19 08:35:12;;;;;;;38.43;7.27;;;;;;;2.21;100.00;99012.56;5121335;28;20604;-76
2022/01/19 08:37:39;;;;;;;58.53;8.50;;;;;;;2.14;100.00;99005.38;5124172;28;20771;-76
2022/01/19 08:40:08;;;;;;;85.03;9.43;;;;;;;2.04;100.00;99004.84;5125092;28;20603;-76
2022/01/19 08:42:36;;;;;;;45.03;7.03;;;;;;;2.35;100.00;99003.84;5121930;28;20650;-76
2022/01/19 08:45:07;;;;;;;56.40;7.37;;;;;;;2.43;100.00;99009.00;5121894;28;20616;-76
2022/01/19 08:47:35;;;;;;;76.77;8.67;;;;;;;2.29;100.00;98999.31;5121770;28;20743;-76
2022/01/19 08:50:02;;;;;;;82.67;8.00;;;;;;;2.47;100.00;99003.19;5119625;28;20646;-76
2022/01/19 08:52:29;;;;;;;75.50;8.00;;;;;;;2.20;100.00;99003.81;5157485;27;20629;-76
2022/01/19 08:54:56;;;;;;;99.97;8.73;;;;;;;2.06;100.00;99005.50;5115438;28;20608;-76
2022/01/19 08:57:24;;;;;;;57.37;7.10;;;;;;;1.92;100.00;99016.03;5122957;28;21010;-76
2022/01/19 08:59:51;;;;;;;67.80;8.07;;;;;;;1.89;100.00;99011.91;5123908;28;20655;-76
2022/01/19 09:02:18;;;;;;;56.60;5.70;;;;;;;2.04;100.00;99017.22;5122960;28;20600;-76
2022/01/19 09:04:47;;;;;;;58.07;8.23;;;;;;;1.97;100.00;99022.38;5120036;28;20658;-76
2022/01/19 09:07:14;;;;;;;61.83;7.17;;;;;;;2.28;100.00;99013.47;5122075;28;20596;-76
2022/01/19 09:09:41;;;;;;;44.63;5.83;;;;;;;2.48;100.00;99010.06;5125620;28;20607;-76
2022/01/19 09:12:09;;;;;;;47.13;6.27;;;;;;;2.28;100.00;99003.75;5122866;28;20607;-76
2022/01/19 09:14:36;;;;;;;43.17;6.13;;;;;;;2.75;100.00;99007.75;5120728;28;20620;-76
2022/01/19 09:17:07;;;;;;;35.77;5.80;;;;;;;3.09;100.00;99008.72;5120512;28;20661;-76
2022/01/19 09:19:35;;;;;;;54.70;8.30;;;;;;;3.06;100.00;99006.47;5120432;28;20615;-76
2022/01/19 09:22:06;;;;;;;45.17;6.03;;;;;;;2.51;100.00;98996.53;5121293;28;20597;-76
2022/01/19 09:24:34;;;;;;;33.27;4.33;;;;;;;2.02;100.00;99001.56;5115491;28;20615;-76
2022/01/19 09:27:01;;;;;;;30.00;5.20;;;;;;;1.85;100.00;99002.75;5130859;28;20596;-76
2022/01/19 09:29:28;;;;;;;25.83;5.30;;;;;;;1.68;100.00;99003.09;5128873;28;20603;-76
2022/01/19 09:31:56;;;;;;;47.03;6.40;;;;;;;1.79;100.00;99000.03;5130881;28;20844;-76
2022/01/19 09:34:23;;;;;;;47.97;6.83;;;;;;;2.13;100.00;98995.03;5128269;28;20607;-76
2022/01/19 09:36:49;;;;;;;78.13;6.70;;;;;;;1.94;100.00;98998.22;5123991;28;20605;-76
2022/01/19 09:39:20;;;;;;;58.70;5.83;;;;;;;1.91;100.00;98994.13;5123008;28;20593;-76
2022/01/19 09:41:48;;;;;;;81.97;8.47;;;;;;;1.96;100.00;98978.59;5122904;28;20588;-76
2022/01/19 09:44:15;;;;;;;45.27;4.93;;;;;;;1.88;100.00;98967.34;5121562;28;21005;-76
2022/01/19 09:46:43;;;;;;;29.57;4.67;;;;;;;1.97;100.00;98966.25;5120708;28;20597;-75
2022/01/19 09:49:11;;;;;;;64.10;5.87;;;;;;;1.99;100.00;98957.16;5121384;28;20585;-76
2022/01/19 09:51:40;;;;;;;81.53;7.77;;;;;;;2.12;100.00;98964.41;5125230;28;20588;-76
2022/01/19 09:54:07;;;;;;;24.77;4.97;;;;;;;2.44;100.00;98955.28;5118189;28;20597;-76
2022/01/19 09:56:35;;;;;;;67.23;8.07;;;;;;;2.51;100.00;98948.22;5120388;28;20615;-76
2022/01/19 09:59:02;;;;;;;56.77;6.77;;;;;;;2.43;100.00;98940.44;5119077;28;20650;-76
2022/01/19 10:01:29;;;;;;;51.70;6.63;;;;;;;2.36;100.00;98936.91;5122231;28;20600;-76
2022/01/19 10:03:56;;;;;;;89.50;9.60;;;;;;;2.66;100.00;98930.56;5123440;28;20637;-76
2022/01/19 10:06:24;;;;;;;30.63;5.53;;;;;;;2.68;100.00;98929.38;5120735;28;21280;-76
2022/01/19 10:08:54;;;;;;;39.27;6.70;;;;;;;2.54;100.00;98916.22;5119130;28;21137;-76
2022/01/19 10:11:28;;;;;;;47.90;6.33;;;;;;;2.66;100.00;98920.81;5122805;28;21046;-76
2022/01/19 10:17:01;;;;;;;57.67;7.80;;;;;;;3.39;100.00;98935.47;5119158;28;20609;-76
2022/01/19 10:19:31;;;;;;;42.83;5.80;;;;;;;3.49;100.00;98930.69;5121745;28;20760;-76
2022/01/19 10:22:08;;;;;;;46.33;6.13;;;;;;;3.43;100.00;98928.81;5123337;28;20596;-76
2022/01/19 10:24:38;;;;;;;59.70;7.03;;;;;;;3.39;100.00;98937.28;5114506;28;20629;-76
2022/01/19 10:27:28;;;;;;;21.73;5.07;;;;;;;3.52;100.00;98926.81;5119755;28;21248;-76
2022/01/19 10:30:12;;;;;;;43.23;7.40;;;;;;;3.36;100.00;98924.47;5119025;28;20608;-76
2022/01/19 10:32:41;;;;;;;46.10;6.47;;;;;;;3.30;100.00;98919.97;5120162;28;20608;-76
2022/01/19 10:35:16;;;;;;;27.27;5.87;;;;;;;3.08;100.00;98917.38;5120556;28;20615;-76
2022/01/19 10:37:43;;;;;;;39.23;6.80;;;;;;;3.15;100.00;98923.53;5122683;28;20622;-77
2022/01/19 10:40:15;;;;;;;75.77;9.33;;;;;;;3.15;100.00;98928.78;5121281;28;21036;-76
2022/01/19 10:42:41;;;;;;;57.87;8.10;;;;;;;3.39;100.00;98909.06;5119712;28;20608;-77
2022/01/19 10:45:11;;;;;;;38.97;6.67;;;;;;;3.22;100.00;98903.25;5119747;28;20600;-76
2022/01/19 10:47:44;;;;;;;64.93;7.30;;;;;;;3.05;100.00;98886.06;5122375;28;21023;-76
2022/01/19 10:50:13;;;;;;;30.73;5.90;;;;;;;3.26;100.00;98888.66;5122162;28;20609;-76
2022/01/19 10:52:42;;;;;;;68.07;8.87;;;;;;;3.40;100.00;98872.91;5118326;28;20616;-76
2022/01/19 10:55:11;;;;;;;61.43;8.90;;;;;;;3.40;100.00;98870.28;5114955;28;20597;-76
2022/01/19 10:57:42;;;;;;;29.43;6.33;;;;;;;3.60;100.00;98871.19;5122540;28;20608;-77
2022/01/19 11:00:17;;;;;;;37.53;5.93;;;;;;;3.58;100.00;98868.75;5122511;28;20604;-76
2022/01/19 11:02:44;;;;;;;54.40;7.40;;;;;;;3.44;100.00;98868.88;5119519;28;20661;-77
2022/01/19 11:05:12;;;;;;;41.77;8.23;;;;;;;3.51;100.00;98872.38;5120496;28;20628;-76
2022/01/19 11:07:39;;;;;;;73.97;8.33;;;;;;;3.34;100.00;98860.50;5123280;28;20614;-76
2022/01/19 11:10:13;;;;;;;43.60;8.23;;;;;;;3.30;100.00;98856.59;5122796;28;20652;-76
2022/01/19 11:12:46;;;;;;;48.17;8.13;;;;;;;3.43;100.00;98861.97;5118884;28;20596;-76
2022/01/19 11:15:18;;;;;;;46.63;7.67;;;;;;;3.52;100.00;98844.97;5120509;28;20605;-77
2022/01/19 11:17:45;;;;;;;53.50;8.90;;;;;;;3.31;100.00;98843.22;5121437;28;20611;-76
2022/01/19 11:20:14;;;;;;;45.23;7.67;;;;;;;3.43;100.00;98831.09;5122213;28;20629;-76
2022/01/19 11:22:57;;;;;;;56.50;8.00;;;;;;;3.50;100.00;98836.41;5118748;28;20589;-76
2022/01/19 11:25:33;;;;;;;43.73;7.87;;;;;;;3.23;100.00;98841.53;5122406;28;20619;-76
2022/01/19 11:28:00;;;;;;;45.60;9.30;;;;;;;3.06;100.00;98815.66;5122734;28;20695;-76
2022/01/19 11:30:31;;;;;;;50.17;8.33;;;;;;;2.98;100.00;98815.78;5119103;28;20605;-76
2022/01/19 11:33:24;;;;;;;52.57;9.33;;;;;;;3.06;100.00;98813.81;5117515;28;20601;-76
2022/01/19 11:35:53;;;;;;;70.30;9.47;;;;;;;3.30;100.00;98819.63;5117474;28;20632;-76
2022/01/19 11:38:35;;;;;;;25.57;8.17;;;;;;;3.45;100.00;98804.50;5120562;28;20620;-76
2022/01/19 11:41:05;;;;;;;71.63;12.00;;;;;;;3.18;100.00;98800.91;5120881;28;20629;-76
2022/01/19 11:43:32;;;;;;;61.83;10.97;;;;;;;3.07;100.00;98794.31;5117134;28;20608;-76
2022/01/19 11:46:03;;;;;;;49.80;11.73;;;;;;;3.12;100.00;98785.84;5118981;28;20662;-77
2022/01/19 11:48:35;;;;;;;74.67;11.40;;;;;;;2.97;100.00;98783.28;5122335;28;20619;-76
2022/01/19 11:51:26;;;;;;;68.90;12.90;;;;;;;2.97;100.00;98780.66;5120700;28;20596;-76
2022/01/19 11:54:04;;;;;;;54.83;9.77;;;;;;;3.13;100.00;98776.88;5117053;28;20604;-76
2022/01/19 11:56:31;;;;;;;49.73;11.30;;;;;;;3.02;100.00;98770.34;5117152;28;20600;-76
2022/01/19 11:59:09;;;;;;;75.73;12.77;;;;;;;3.28;100.00;98774.94;5117350;28;20608;-77
2022/01/19 12:01:38;;;;;;;43.87;10.77;;;;;;;3.11;100.00;98768.38;5119316;28;20607;-76
2022/01/19 12:04:16;;;;;;;42.43;12.17;;;;;;;2.99;100.00;98759.38;5118917;28;20670;-76
2022/01/19 12:06:43;;;;;;;47.40;9.70;;;;;;;3.21;100.00;98760.91;5123116;28;20596;-76
2022/01/19 12:09:12;;;;;;;72.47;13.37;;;;;;;3.40;100.00;98749.66;5127282;28;20623;-76
2022/01/19 12:11:42;;;;;;;57.60;12.97;;;;;;;3.31;100.00;98747.38;5128741;28;20607;-76
2022/01/19 12:14:13;;;;;;;36.17;10.90;;;;;;;3.54;100.00;98734.66;5124691;28;20599;-76
2022/01/19 12:17:01;;;;;;;55.93;12.93;;;;;;;3.70;100.00;98731.66;5119557;28;20607;-76
2022/01/19 12:19:29;;;;;;;66.37;14.90;;;;;;;3.80;100.00;98721.53;5120979;28;20617;-77
2022/01/19 12:22:05;;;;;;;86.77;13.23;;;;;;;3.86;100.00;98710.16;5121716;28;20600;-76
2022/01/19 12:24:34;;;;;;;72.83;14.57;;;;;;;3.65;100.00;98716.38;5112277;28;20608;-76
2022/01/19 12:27:05;;;;;;;63.83;12.87;;;;;;;3.82;100.00;98708.94;5118761;28;20593;-76
2022/01/19 12:29:40;;;;;;;60.03;13.40;;;;;;;3.95;100.00;98701.03;5112613;28;20612;-77
2022/01/19 12:32:29;;;;;;;52.80;12.80;;;;;;;3.81;100.00;98686.97;5114134;28;20612;-76
2022/01/19 12:34:57;;;;;;;33.17;10.90;;;;;;;3.60;100.00;98689.78;5120977;28;21111;-77
2022/01/19 12:37:38;;;;;;;76.67;14.13;;;;;;;3.37;100.00;98689.31;5113275;28;20605;-76
2022/01/19 12:40:27;;;;;;;103.17;14.60;;;;;;;3.38;100.00;98687.47;5113062;28;20875;-77